Time;durP1;ratioP1;P1;durP2;ratioP2;P2;SDS_P1;SDS_P2;PMS_P1;PMS_P2;Temp;Humidity;BMP_temperature;BMP_pressure;BME280_temperature;BME280_humidity;BME280_pressure;Samples;Min_cycle;Max_cycle;Signal;HPM_P1;HPM_P2
2021/01/29 00:00:42;;;;;;;3.53;1.00;;;8.00;99.90;;;;;;5021382;28;20440;-72
2021/01/29 00:03:12;;;;;;;2.03;1.10;;;8.00;99.90;;;;;;5024579;28;20221;-72
2021/01/29 00:05:40;;;;;;;1.33;1.23;;;8.10;99.90;;;;;;5042799;28;20201;-72
2021/01/29 00:08:09;;;;;;;1.00;0.90;;;8.10;99.90;;;;;;5043021;28;20204;-72
2021/01/29 00:10:35;;;;;;;1.15;0.93;;;8.10;99.90;;;;;;5043060;28;20205;-72
2021/01/29 00:13:02;;;;;;;1.50;0.90;;;8.10;99.90;;;;;;5047930;28;20228;-72
2021/01/29 00:15:30;;;;;;;1.20;1.10;;;8.10;99.90;;;;;;5048806;28;20780;-72
2021/01/29 00:17:56;;;;;;;1.10;1.00;;;8.10;99.90;;;;;;5049712;28;20216;-72
2021/01/29 00:20:27;;;;;;;3.00;0.95;;;8.10;99.90;;;;;;5049335;28;20898;-72
2021/01/29 00:22:54;;;;;;;1.17;1.05;;;8.10;99.90;;;;;;5048214;28;20769;-72
2021/01/29 00:25:24;;;;;;;0.90;0.80;;;8.10;99.90;;;;;;5048917;28;20215;-72
2021/01/29 00:27:51;;;;;;;1.50;1.20;;;8.10;99.90;;;;;;5048227;28;20204;-72
2021/01/29 00:30:20;;;;;;;1.40;1.20;;;8.00;99.90;;;;;;5049150;28;20694;-72
2021/01/29 00:32:47;;;;;;;1.27;1.00;;;8.00;99.90;;;;;;5048347;28;20225;-72
2021/01/29 00:35:15;;;;;;;2.60;1.20;;;8.00;99.90;;;;;;5049239;28;20578;-72
2021/01/29 00:37:41;;;;;;;1.60;1.10;;;8.00;99.90;;;;;;5048712;28;20276;-72
2021/01/29 00:40:09;;;;;;;1.20;1.10;;;8.00;99.90;;;;;;5049034;28;20205;-72
2021/01/29 00:42:37;;;;;;;1.20;1.10;;;8.00;99.90;;;;;;5047799;28;20239;-72
2021/01/29 00:45:06;;;;;;;1.30;1.13;;;7.90;99.90;;;;;;5049181;28;20209;-72
2021/01/29 00:47:32;;;;;;;1.10;1.00;;;7.90;99.90;;;;;;5048548;28;20203;-72
2021/01/29 00:49:59;;;;;;;1.00;0.90;;;7.90;99.90;;;;;;5049143;28;20623;-72
2021/01/29 00:52:25;;;;;;;1.65;1.20;;;7.90;99.90;;;;;;5047805;28;20209;-72
2021/01/29 00:54:52;;;;;;;1.23;1.10;;;7.90;99.90;;;;;;5048873;28;20698;-72
2021/01/29 00:57:18;;;;;;;1.80;1.70;;;8.00;99.90;;;;;;5048995;28;20221;-72
2021/01/29 00:59:46;;;;;;;1.30;1.20;;;8.00;99.90;;;;;;5049866;28;20209;-72
2021/01/29 01:02:12;;;;;;;1.52;1.00;;;8.00;99.90;;;;;;5049290;28;20216;-73
2021/01/29 01:04:39;;;;;;;1.90;1.48;;;7.90;99.90;;;;;;5048308;28;20301;-72
2021/01/29 01:07:05;;;;;;;1.52;1.20;;;8.00;99.90;;;;;;5048844;28;20204;-72
2021/01/29 01:09:32;;;;;;;2.45;1.23;;;8.00;99.90;;;;;;5049308;28;20736;-72
2021/01/29 01:11:58;;;;;;;2.78;1.40;;;8.00;99.90;;;;;;5052465;28;20292;-73
2021/01/29 01:14:24;;;;;;;2.00;1.20;;;8.00;99.90;;;;;;5050981;28;20428;-73
2021/01/29 01:16:51;;;;;;;1.20;1.10;;;8.10;99.90;;;;;;5053774;28;20825;-73
2021/01/29 01:19:17;;;;;;;3.75;1.40;;;8.00;99.90;;;;;;5052812;28;20208;-74
2021/01/29 01:21:44;;;;;;;2.85;1.30;;;8.00;99.90;;;;;;5053617;28;20204;-73
2021/01/29 01:24:10;;;;;;;1.10;1.00;;;8.00;99.90;;;;;;5051004;28;20221;-73
2021/01/29 01:26:36;;;;;;;1.20;1.10;;;8.10;99.90;;;;;;5051206;28;20215;-71
2021/01/29 01:29:03;;;;;;;1.50;1.38;;;8.10;99.90;;;;;;5050847;28;20214;-73
2021/01/29 01:31:30;;;;;;;2.30;1.50;;;8.10;99.90;;;;;;5051233;28;20252;-73
2021/01/29 01:33:57;;;;;;;3.30;1.30;;;8.10;99.90;;;;;;5050430;28;20247;-73
2021/01/29 01:36:23;;;;;;;3.67;1.50;;;8.10;99.90;;;;;;5051431;28;20767;-73
2021/01/29 01:38:49;;;;;;;1.20;1.10;;;8.10;99.90;;;;;;5050962;28;20201;-73
2021/01/29 01:41:15;;;;;;;2.40;1.40;;;8.10;99.90;;;;;;5051246;28;20570;-73
2021/01/29 01:43:41;;;;;;;1.50;1.20;;;8.10;99.90;;;;;;5049700;28;20239;-73
2021/01/29 01:46:09;;;;;;;3.00;1.70;;;8.00;99.90;;;;;;5050916;28;20204;-73
2021/01/29 01:48:51;;;;;;;1.55;1.20;;;8.00;99.90;;;;;;5050831;28;20226;-73
2021/01/29 01:51:28;;;;;;;1.80;1.20;;;8.00;99.90;;;;;;5050700;28;20205;-73
2021/01/29 01:53:58;;;;;;;4.72;1.42;;;8.00;99.90;;;;;;5050233;28;20224;-73
2021/01/29 01:56:32;;;;;;;4.32;1.70;;;8.00;99.90;;;;;;5050222;28;20583;-73
2021/01/29 01:59:04;;;;;;;1.45;1.35;;;8.00;99.90;;;;;;5050994;28;20205;-73
2021/01/29 02:01:32;;;;;;;2.00;1.42;;;8.00;99.90;;;;;;5050408;28;20208;-73
2021/01/29 02:04:00;;;;;;;2.17;1.60;;;8.10;99.90;;;;;;5050433;28;20221;-73
2021/01/29 02:06:29;;;;;;;1.58;1.40;;;8.00;99.90;;;;;;5050123;28;20576;-73
2021/01/29 02:09:00;;;;;;;2.05;1.38;;;8.00;99.90;;;;;;5050762;28;20255;-73
2021/01/29 02:11:26;;;;;;;1.25;1.10;;;8.00;99.90;;;;;;5047304;28;20205;-73
2021/01/29 02:13:52;;;;;;;1.40;1.30;;;8.00;99.90;;;;;;5049459;28;20228;-73
2021/01/29 02:16:23;;;;;;;1.27;1.17;;;8.00;99.90;;;;;;5051323;28;20243;-73
2021/01/29 02:19:26;;;;;;;1.90;1.20;;;8.00;99.90;;;;;;5050416;28;20208;-73
2021/01/29 02:22:23;;;;;;;1.10;1.00;;;8.00;99.90;;;;;;5052397;28;20590;-73
2021/01/29 02:25:20;;;;;;;1.10;1.00;;;8.00;99.90;;;;;;5051711;28;20209;-73
2021/01/29 02:27:51;;;;;;;1.38;1.17;;;8.00;99.90;;;;;;5051966;28;20593;-73
2021/01/29 02:30:51;;;;;;;1.20;1.10;;;8.00;99.90;;;;;;5052142;28;20706;-73
2021/01/29 02:34:07;;;;;;;1.00;0.90;;;8.00;99.90;;;;;;5051770;28;20244;-73
2021/01/29 02:36:51;;;;;;;1.50;1.20;;;8.00;99.90;;;;;;5050967;28;20229;-73
2021/01/29 02:39:45;;;;;;;1.00;0.90;;;8.00;99.90;;;;;;5051596;28;20262;-73
2021/01/29 02:42:40;;;;;;;1.10;0.80;;;8.00;99.90;;;;;;5051508;28;20259;-73
2021/01/29 02:45:18;;;;;;;1.63;1.33;;;8.00;99.90;;;;;;5051720;28;20574;-73
2021/01/29 02:47:49;;;;;;;1.35;1.10;;;7.90;99.90;;;;;;5051270;28;20201;-73
2021/01/29 02:50:44;;;;;;;1.23;0.90;;;7.90;99.90;;;;;;5052095;28;20201;-73
2021/01/29 02:53:24;;;;;;;1.20;1.00;;;8.00;99.90;;;;;;5048897;28;20236;-73
2021/01/29 02:55:56;;;;;;;1.30;1.10;;;7.90;99.90;;;;;;5051455;28;20228;-73
2021/01/29 02:58:30;;;;;;;1.00;0.88;;;7.90;99.90;;;;;;5053565;28;20205;-74
2021/01/29 03:01:03;;;;;;;1.23;1.13;;;8.00;99.90;;;;;;5050014;28;20200;-73
2021/01/29 03:03:35;;;;;;;1.52;1.10;;;7.90;99.90;;;;;;5048857;28;20221;-73
2021/01/29 03:06:06;;;;;;;2.60;1.10;;;7.90;99.90;;;;;;5049858;28;20197;-73
2021/01/29 03:08:38;;;;;;;1.10;1.00;;;7.90;99.90;;;;;;5048599;28;20216;-73
2021/01/29 03:11:09;;;;;;;1.00;0.90;;;7.90;99.90;;;;;;5049356;28;20209;-73
2021/01/29 03:13:42;;;;;;;1.50;1.15;;;8.00;99.90;;;;;;5048399;28;20225;-73
2021/01/29 03:16:15;;;;;;;1.33;1.00;;;8.00;99.90;;;;;;5049533;28;20600;-73
2021/01/29 03:18:50;;;;;;;1.23;1.10;;;8.00;99.90;;;;;;5049130;28;20201;-73
2021/01/29 03:21:21;;;;;;;1.10;0.90;;;8.00;99.90;;;;;;5048984;28;20201;-73
2021/01/29 03:23:51;;;;;;;1.30;1.10;;;8.10;99.90;;;;;;5049138;28;20225;-73
2021/01/29 03:26:21;;;;;;;1.10;1.00;;;8.10;99.90;;;;;;5030225;22;20232;-70
2021/01/29 03:28:52;;;;;;;1.20;0.90;;;8.10;99.90;;;;;;4947549;28;20228;-70
2021/01/29 03:31:21;;;;;;;2.40;1.00;;;8.10;99.90;;;;;;4948257;29;20262;-70
2021/01/29 03:33:50;;;;;;;1.30;1.00;;;8.10;99.90;;;;;;4947379;28;20244;-70
2021/01/29 03:36:20;;;;;;;1.20;1.00;;;8.10;99.90;;;;;;4948250;28;20220;-70
2021/01/29 03:38:51;;;;;;;1.02;0.90;;;8.20;99.90;;;;;;4948005;28;20576;-69
2021/01/29 03:41:22;;;;;;;1.10;1.00;;;8.10;99.90;;;;;;4948326;28;20201;-70
2021/01/29 03:44:00;;;;;;;1.40;1.10;;;8.20;99.90;;;;;;4947105;28;20723;-70
2021/01/29 03:46:35;;;;;;;1.33;1.20;;;8.10;99.90;;;;;;4947636;28;20207;-70
2021/01/29 03:49:15;;;;;;;0.98;0.88;;;8.10;99.90;;;;;;4947748;28;20235;-70
2021/01/29 03:51:51;;;;;;;1.70;0.98;;;8.20;99.90;;;;;;4947552;28;20209;-70
2021/01/29 03:54:24;;;;;;;2.03;1.05;;;8.20;99.90;;;;;;4947678;28;20273;-70
2021/01/29 03:57:02;;;;;;;1.00;0.90;;;8.20;99.90;;;;;;4947686;28;20224;-70
2021/01/29 03:59:35;;;;;;;1.08;0.80;;;8.20;99.90;;;;;;4947733;28;20549;-70
2021/01/29 04:02:11;;;;;;;2.00;1.10;;;8.20;99.90;;;;;;4936786;28;20248;-70
2021/01/29 04:04:48;;;;;;;1.10;1.00;;;8.10;99.90;;;;;;4928420;28;20287;-70
2021/01/29 04:07:20;;;;;;;1.10;1.00;;;8.10;99.90;;;;;;4928955;28;20216;-70
2021/01/29 04:09:51;;;;;;;1.02;0.90;;;8.10;99.90;;;;;;4942036;29;20208;-70
2021/01/29 04:12:25;;;;;;;1.23;1.10;;;8.10;99.90;;;;;;4947217;29;20571;-70
2021/01/29 04:14:58;;;;;;;1.05;0.90;;;8.00;99.90;;;;;;4947590;29;20215;-70
2021/01/29 04:17:31;;;;;;;1.60;1.00;;;8.00;99.90;;;;;;4947379;29;20745;-70
2021/01/29 04:20:02;;;;;;;1.65;1.02;;;8.00;99.90;;;;;;4947133;29;20635;-70
2021/01/29 04:22:33;;;;;;;2.88;0.80;;;8.00;99.90;;;;;;4946515;29;20200;-70
2021/01/29 04:25:03;;;;;;;1.60;1.00;;;8.00;99.90;;;;;;4947360;29;20227;-70
2021/01/29 04:27:36;;;;;;;0.90;0.80;;;8.10;99.90;;;;;;4947440;29;20204;-70
2021/01/29 04:30:07;;;;;;;1.20;1.10;;;8.10;99.90;;;;;;4947763;29;20621;-70
2021/01/29 04:32:37;;;;;;;1.02;0.77;;;8.00;99.90;;;;;;4946509;29;20726;-69
2021/01/29 04:35:05;;;;;;;1.98;0.80;;;8.00;99.90;;;;;;4947149;29;20211;-69
2021/01/29 04:37:36;;;;;;;1.20;0.90;;;8.00;99.90;;;;;;4947502;28;20228;-68
2021/01/29 04:40:14;;;;;;;2.00;1.10;;;8.00;99.90;;;;;;4947614;28;20235;-69
2021/01/29 04:43:09;;;;;;;1.15;1.00;;;7.90;99.90;;;;;;4947124;29;20232;-69
2021/01/29 04:45:52;;;;;;;1.10;0.90;;;7.90;99.90;;;;;;4948660;28;20575;-69
2021/01/29 04:48:26;;;;;;;1.25;0.82;;;7.80;99.90;;;;;;4947688;29;20204;-69
2021/01/29 04:51:20;;;;;;;0.90;0.80;;;7.80;99.90;;;;;;4947209;29;20226;-69
2021/01/29 04:54:32;;;;;;;1.40;0.85;;;7.80;99.90;;;;;;4946619;29;20224;-69
2021/01/29 04:57:24;;;;;;;1.08;0.90;;;7.80;99.90;;;;;;4948969;28;20239;-69
2021/01/29 05:00:15;;;;;;;0.80;0.80;;;7.80;99.90;;;;;;4949388;28;20301;-69
2021/01/29 05:03:01;;;;;;;2.15;0.90;;;7.80;99.90;;;;;;4949950;28;20224;-69
2021/01/29 05:06:02;;;;;;;1.08;0.80;;;7.70;99.90;;;;;;4951043;28;20204;-69
2021/01/29 05:08:59;;;;;;;1.08;0.98;;;7.80;99.90;;;;;;4955010;28;20583;-69
2021/01/29 05:11:48;;;;;;;1.63;1.00;;;7.70;99.90;;;;;;4949507;28;20254;-69
2021/01/29 05:14:27;;;;;;;1.77;1.05;;;7.80;99.90;;;;;;4949074;29;20734;-69
2021/01/29 05:17:12;;;;;;;6.28;0.98;;;7.70;99.90;;;;;;4948657;29;20232;-69
2021/01/29 05:19:57;;;;;;;0.93;0.82;;;7.70;99.90;;;;;;4949539;29;20254;-69
2021/01/29 05:22:40;;;;;;;0.80;0.77;;;7.70;99.90;;;;;;4950019;28;20208;-70
2021/01/29 05:25:55;;;;;;;0.90;0.70;;;7.80;99.90;;;;;;4950299;28;20220;-69
2021/01/29 05:28:52;;;;;;;1.60;0.70;;;7.80;99.90;;;;;;4950969;28;20250;-69
2021/01/29 05:31:41;;;;;;;0.80;0.70;;;7.80;99.90;;;;;;4949909;28;20208;-69
2021/01/29 05:34:44;;;;;;;0.80;0.70;;;7.80;99.90;;;;;;4953375;28;20241;-70
2021/01/29 05:37:44;;;;;;;3.08;0.93;;;7.80;99.90;;;;;;4949417;28;20224;-69
2021/01/29 05:40:26;;;;;;;0.90;0.80;;;7.80;99.90;;;;;;4949618;29;20208;-69
2021/01/29 05:43:09;;;;;;;1.02;0.90;;;7.80;99.90;;;;;;4948957;29;20228;-69
2021/01/29 05:46:00;;;;;;;1.00;0.90;;;7.70;99.90;;;;;;4949684;29;20219;-68
2021/01/29 05:49:12;;;;;;;0.80;0.77;;;7.70;99.90;;;;;;4949601;29;20208;-69
2021/01/29 05:52:16;;;;;;;1.88;1.00;;;7.60;99.90;;;;;;4948972;29;20295;-70
2021/01/29 05:55:01;;;;;;;0.80;0.80;;;7.60;99.90;;;;;;4949551;29;20226;-68
2021/01/29 05:58:01;;;;;;;3.38;1.00;;;7.60;99.90;;;;;;4949396;29;20228;-69
2021/01/29 06:00:42;;;;;;;1.30;0.90;;;7.60;99.90;;;;;;4949395;29;20705;-69
2021/01/29 06:03:33;;;;;;;1.48;1.00;;;7.60;99.90;;;;;;4947893;28;20239;-68
2021/01/29 06:06:22;;;;;;;0.93;0.80;;;7.50;99.90;;;;;;4948662;29;20714;-69
2021/01/29 06:09:13;;;;;;;1.08;0.88;;;7.50;99.90;;;;;;4948353;28;20201;-68
2021/01/29 06:11:51;;;;;;;1.20;0.90;;;7.40;99.90;;;;;;4957554;28;20202;-68
2021/01/29 06:14:46;;;;;;;1.10;1.00;;;7.40;99.90;;;;;;4934709;28;20707;-68
2021/01/29 06:17:44;;;;;;;0.88;0.80;;;7.40;99.90;;;;;;4940226;28;20213;-68
2021/01/29 06:20:46;;;;;;;1.63;1.08;;;7.40;99.90;;;;;;4943920;28;20212;-69
2021/01/29 06:24:00;;;;;;;1.38;1.00;;;7.40;99.90;;;;;;4948160;28;20224;-68
2021/01/29 06:26:43;;;;;;;1.02;0.80;;;7.50;99.90;;;;;;4954547;28;20303;-68
2021/01/29 06:29:23;;;;;;;2.65;1.27;;;7.50;99.90;;;;;;4947656;29;20204;-68
2021/01/29 06:32:53;;;;;;;1.20;1.02;;;7.50;99.90;;;;;;4947963;29;20238;-68
2021/01/29 06:35:34;;;;;;;1.30;0.88;;;7.50;99.90;;;;;;4949465;29;20239;-68
2021/01/29 06:38:28;;;;;;;2.17;1.00;;;7.50;99.90;;;;;;4948651;29;20263;-68
2021/01/29 06:41:12;;;;;;;1.08;0.75;;;7.60;99.90;;;;;;4929717;28;20489;-68
2021/01/29 06:43:55;;;;;;;1.73;0.80;;;7.70;99.90;;;;;;4928972;28;20229;-70
2021/01/29 06:46:47;;;;;;;1.00;0.70;;;7.80;99.90;;;;;;4930350;28;20504;-68
2021/01/29 06:49:39;;;;;;;2.70;0.95;;;7.90;99.90;;;;;;4937197;28;20248;-68
2021/01/29 06:52:41;;;;;;;1.00;0.80;;;7.90;99.90;;;;;;4947779;28;20208;-68
2021/01/29 06:55:42;;;;;;;0.80;0.70;;;8.00;99.90;;;;;;4948835;29;20265;-68
2021/01/29 06:58:52;;;;;;;1.27;0.80;;;8.00;99.90;;;;;;4948425;29;20200;-69
2021/01/29 07:01:35;;;;;;;0.90;0.70;;;8.00;99.90;;;;;;4934007;28;20553;-68
2021/01/29 07:04:32;;;;;;;0.95;0.73;;;8.10;99.90;;;;;;4937160;28;20236;-69
2021/01/29 07:07:06;;;;;;;0.70;0.70;;;8.10;99.90;;;;;;4947461;28;20574;-68
2021/01/29 07:09:51;;;;;;;0.90;0.70;;;8.20;99.90;;;;;;4948713;28;20267;-68
2021/01/29 07:12:27;;;;;;;1.42;1.00;;;8.20;99.90;;;;;;4947910;29;20580;-68
2021/01/29 07:15:25;;;;;;;0.93;0.82;;;8.10;99.90;;;;;;4948029;28;20208;-68
2021/01/29 07:18:14;;;;;;;0.70;0.70;;;8.10;99.90;;;;;;4947687;28;20611;-69
2021/01/29 07:20:58;;;;;;;2.03;0.90;;;8.10;99.90;;;;;;4947786;28;20217;-68
2021/01/29 07:23:41;;;;;;;0.80;0.77;;;8.10;99.90;;;;;;4947182;29;20266;-68
2021/01/29 07:26:34;;;;;;;1.00;0.80;;;8.20;99.90;;;;;;4947935;29;20671;-69
2021/01/29 07:29:13;;;;;;;1.92;0.90;;;8.20;99.90;;;;;;4946917;29;20216;-68
2021/01/29 07:31:55;;;;;;;1.27;0.90;;;8.30;99.90;;;;;;4947055;28;20212;-68
2021/01/29 07:34:31;;;;;;;1.10;0.80;;;8.30;99.90;;;;;;4950177;28;20223;-69
2021/01/29 07:37:27;;;;;;;1.33;0.73;;;8.40;99.90;;;;;;4947844;29;20774;-68
2021/01/29 07:40:10;;;;;;;0.98;0.88;;;8.40;99.90;;;;;;4947097;29;20216;-68
2021/01/29 07:42:59;;;;;;;1.15;0.77;;;8.50;99.90;;;;;;4940639;28;20770;-68
2021/01/29 07:45:35;;;;;;;1.75;0.90;;;8.50;99.90;;;;;;4947503;29;20293;-68
2021/01/29 07:48:41;;;;;;;1.35;0.90;;;8.50;99.90;;;;;;4947749;29;20215;-68
2021/01/29 07:51:14;;;;;;;0.77;0.70;;;8.50;99.90;;;;;;4928436;29;20219;-69
2021/01/29 07:53:49;;;;;;;3.40;1.20;;;8.50;99.90;;;;;;4938522;29;20224;-69
2021/01/29 07:56:35;;;;;;;1.40;0.80;;;8.50;99.90;;;;;;4947529;29;20228;-68
2021/01/29 07:59:14;;;;;;;1.20;0.80;;;8.60;99.90;;;;;;4947464;29;20713;-69
2021/01/29 08:01:54;;;;;;;2.17;0.98;;;8.60;99.90;;;;;;4946054;29;20212;-69
2021/01/29 08:04:49;;;;;;;2.15;0.95;;;8.70;99.90;;;;;;4946781;29;20220;-69
2021/01/29 08:07:22;;;;;;;0.90;0.80;;;8.80;99.90;;;;;;4947353;29;20216;-69
2021/01/29 08:09:54;;;;;;;1.45;0.90;;;8.90;99.90;;;;;;4943320;29;20215;-68
2021/01/29 08:12:22;;;;;;;1.10;0.75;;;8.90;99.90;;;;;;4946674;28;20211;-69
2021/01/29 08:15:15;;;;;;;1.50;0.85;;;9.00;99.90;;;;;;4947395;29;20209;-68
2021/01/29 08:18:12;;;;;;;1.50;0.85;;;9.00;99.90;;;;;;4945856;29;20235;-68
2021/01/29 08:20:55;;;;;;;1.33;0.80;;;9.10;99.90;;;;;;4947170;28;20213;-68
2021/01/29 08:23:32;;;;;;;3.78;0.82;;;9.10;99.90;;;;;;4946339;29;20274;-69
2021/01/29 08:26:34;;;;;;;0.80;0.70;;;9.10;99.90;;;;;;4947294;29;20678;-68
2021/01/29 08:29:46;;;;;;;0.70;0.70;;;9.20;99.90;;;;;;4946977;29;20207;-68
2021/01/29 08:32:40;;;;;;;1.70;1.00;;;9.20;99.90;;;;;;4946777;28;20200;-68
2021/01/29 08:35:30;;;;;;;0.85;0.73;;;9.40;99.90;;;;;;4950253;29;20216;-69
2021/01/29 08:38:03;;;;;;;1.23;0.95;;;9.40;99.90;;;;;;4950474;29;20600;-68
2021/01/29 08:40:35;;;;;;;1.48;0.90;;;9.40;99.90;;;;;;4949967;29;20212;-68
2021/01/29 08:43:31;;;;;;;1.00;0.80;;;9.40;99.90;;;;;;4949084;28;20294;-69
2021/01/29 08:46:12;;;;;;;0.90;0.80;;;9.40;99.90;;;;;;4950195;29;20213;-68
2021/01/29 08:49:15;;;;;;;1.23;0.70;;;9.50;99.90;;;;;;4948998;29;20561;-68
2021/01/29 08:51:46;;;;;;;1.70;0.85;;;9.70;99.90;;;;;;4949608;28;20208;-68
2021/01/29 08:54:26;;;;;;;0.80;0.80;;;9.70;99.90;;;;;;4949194;28;20220;-68
2021/01/29 08:57:00;;;;;;;1.65;1.17;;;9.60;99.90;;;;;;4950067;29;20224;-68
2021/01/29 08:59:31;;;;;;;0.80;0.70;;;9.60;99.90;;;;;;4949655;28;20228;-68
2021/01/29 09:02:04;;;;;;;0.90;0.70;;;9.60;99.90;;;;;;4949440;29;20235;-69
2021/01/29 09:04:37;;;;;;;0.93;0.70;;;9.60;99.90;;;;;;4949776;28;20734;-68
2021/01/29 09:07:07;;;;;;;1.33;1.10;;;9.60;99.90;;;;;;4949803;28;20209;-68
2021/01/29 09:09:36;;;;;;;1.20;0.88;;;9.60;99.90;;;;;;4948545;28;20258;-68
2021/01/29 09:12:12;;;;;;;0.93;0.82;;;9.50;99.90;;;;;;4955779;28;20379;-68
2021/01/29 09:14:43;;;;;;;1.38;0.80;;;9.50;99.90;;;;;;4949691;28;20208;-68
2021/01/29 09:17:13;;;;;;;1.05;0.82;;;9.40;99.90;;;;;;4949851;28;20643;-68
2021/01/29 09:19:43;;;;;;;1.42;1.15;;;9.40;99.90;;;;;;4949079;28;20232;-67
2021/01/29 09:22:19;;;;;;;1.27;0.90;;;9.40;99.90;;;;;;4949248;28;20592;-67
2021/01/29 09:24:53;;;;;;;0.80;0.70;;;10.20;99.90;;;;;;4949506;28;20632;-68
2021/01/29 09:27:41;;;;;;;1.20;0.82;;;11.70;99.90;;;;;;5116390;22;20255;-69
2021/01/29 09:30:15;;;;;;;1.10;0.80;;;14.20;99.90;;;;;;4948881;29;20752;-69
2021/01/29 09:32:49;;;;;;;1.35;0.90;;;16.90;99.90;;;;;;4948191;29;20221;-70
2021/01/29 09:35:21;;;;;;;1.57;1.00;;;18.80;99.90;;;;;;4949698;29;20261;-69
2021/01/29 09:37:50;;;;;;;1.37;1.13;;;20.30;99.90;;;;;;4949449;29;20525;-70
2021/01/29 09:40:23;;;;;;;1.40;0.97;;;20.90;98.90;;;;;;4949372;29;20463;-70
2021/01/29 09:42:59;;;;;;;3.43;0.90;;;20.70;97.80;;;;;;4948481;29;20533;-70
2021/01/29 09:45:27;;;;;;;2.37;1.27;;;19.70;97.00;;;;;;4948110;29;20542;-71
2021/01/29 09:48:00;;;;;;;1.87;1.20;;;18.10;97.80;;;;;;4949154;29;20456;-70
2021/01/29 09:50:30;;;;;;;1.63;1.17;;;15.90;99.90;;;;;;4949127;29;20823;-70
2021/01/29 09:53:21;;;;;;;1.80;1.30;;;14.30;99.90;;;;;;4948417;29;20487;-69
2021/01/29 09:55:54;;;;;;;6.55;1.58;;;13.10;99.90;;;;;;4948495;29;20309;-70
2021/01/29 09:58:29;;;;;;;2.03;1.20;;;12.60;99.90;;;;;;4948309;29;20205;-72
2021/01/29 10:01:00;;;;;;;1.97;1.00;;;14.30;99.90;;;;;;4943163;28;21017;-70
2021/01/29 10:03:31;;;;;;;1.87;1.23;;;16.50;99.90;;;;;;4948224;28;20515;-70
2021/01/29 10:06:02;;;;;;;2.17;1.20;;;18.80;98.10;;;;;;4949010;29;20500;-70
2021/01/29 10:08:34;;;;;;;1.60;1.03;;;19.00;96.70;;;;;;4948095;29;21135;-71
2021/01/29 10:11:04;;;;;;;2.57;1.37;;;17.60;97.80;;;;;;4948950;29;20472;-70
2021/01/29 10:14:00;;;;;;;2.13;1.10;;;16.20;99.60;;;;;;4948167;29;20491;-71
2021/01/29 10:16:33;;;;;;;3.33;1.17;;;16.00;99.20;;;;;;4949101;29;20488;-69
2021/01/29 10:19:39;;;;;;;3.63;1.20;;;16.10;99.90;;;;;;4947703;29;20996;-70
2021/01/29 10:22:41;;;;;;;2.38;1.05;;;15.00;99.90;;;;;;4949474;28;20803;-69
2021/01/29 10:25:28;;;;;;;1.40;1.20;;;13.50;99.90;;;;;;4948468;29;20215;-69
2021/01/29 10:27:58;;;;;;;2.40;1.10;;;12.60;99.90;;;;;;4948569;28;20215;-69
2021/01/29 10:30:34;;;;;;;3.50;1.50;;;12.40;99.90;;;;;;4948393;29;20212;-69
2021/01/29 10:33:06;;;;;;;2.53;1.55;;;13.80;99.90;;;;;;4947495;29;20235;-70
2021/01/29 10:35:37;;;;;;;3.63;1.37;;;16.40;99.90;;;;;;4949276;29;20213;-70
2021/01/29 10:38:10;;;;;;;2.50;1.20;;;19.20;97.90;;;;;;4948776;28;20492;-71
2021/01/29 10:40:39;;;;;;;0.90;0.80;;;21.50;95.50;;;;;;4949247;29;20479;-71
2021/01/29 10:43:17;;;;;;;1.20;0.90;;;23.10;93.80;;;;;;4947664;28;20484;-71
2021/01/29 10:45:57;;;;;;;1.70;0.93;;;23.90;92.20;;;;;;4948077;29;20486;-71
2021/01/29 10:48:47;;;;;;;1.10;0.80;;;24.00;91.00;;;;;;4948917;28;20460;-71
2021/01/29 10:51:26;;;;;;;2.87;1.20;;;24.00;89.40;;;;;;4948603;28;20880;-71
2021/01/29 10:53:57;;;;;;;1.67;1.20;;;23.60;89.60;;;;;;4947850;28;20476;-71
2021/01/29 10:56:31;;;;;;;1.97;1.30;;;23.50;88.80;;;;;;4948807;28;20537;-71
2021/01/29 10:59:04;;;;;;;2.10;1.50;;;22.70;86.90;;;;;;4946965;29;21094;-70
2021/01/29 11:01:35;;;;;;;4.10;1.30;;;20.80;89.80;;;;;;4948645;29;20467;-70
2021/01/29 11:04:06;;;;;;;2.07;1.53;;;18.40;91.60;;;;;;4948323;28;20516;-69
2021/01/29 11:06:44;;;;;;;2.80;2.30;;;16.80;93.70;;;;;;4949172;29;20472;-71
2021/01/29 11:09:19;;;;;;;2.60;1.50;;;15.50;95.10;;;;;;4948832;29;20476;-70
2021/01/29 11:11:50;;;;;;;1.27;1.03;;;14.30;96.70;;;;;;4947449;28;20499;-70
2021/01/29 11:14:25;;;;;;;2.27;1.73;;;13.40;98.00;;;;;;4947875;28;20958;-70
2021/01/29 11:17:00;;;;;;;1.98;1.27;;;13.00;99.20;;;;;;4948131;29;20989;-70
2021/01/29 11:19:34;;;;;;;2.05;1.40;;;12.60;99.40;;;;;;4948687;28;20246;-70
2021/01/29 11:22:19;;;;;;;3.45;1.35;;;12.10;99.90;;;;;;4947598;29;20215;-70
2021/01/29 11:25:06;;;;;;;4.72;1.70;;;11.70;99.90;;;;;;4948036;28;20655;-71
2021/01/29 11:27:35;;;;;;;2.40;1.55;;;11.40;99.90;;;;;;4947725;28;20216;-70
2021/01/29 11:30:09;;;;;;;7.20;1.75;;;11.10;99.90;;;;;;4947288;29;20268;-70
2021/01/29 11:32:38;;;;;;;2.67;1.13;;;10.90;99.90;;;;;;4947407;29;20240;-70
2021/01/29 11:35:23;;;;;;;4.38;1.75;;;10.80;99.90;;;;;;4947390;29;20227;-70
2021/01/29 11:38:25;;;;;;;2.40;1.27;;;10.70;99.90;;;;;;4952787;28;20220;-70
2021/01/29 11:41:01;;;;;;;3.47;1.40;;;10.80;99.90;;;;;;4946933;28;20275;-70
2021/01/29 11:43:36;;;;;;;1.77;1.30;;;11.30;99.90;;;;;;4947770;29;20540;-70
2021/01/29 11:46:11;;;;;;;4.13;1.63;;;12.30;99.90;;;;;;4947311;28;20222;-70
2021/01/29 11:48:45;;;;;;;3.55;1.90;;;13.00;99.90;;;;;;4946047;28;20219;-71
2021/01/29 11:51:20;;;;;;;5.10;1.48;;;12.90;99.90;;;;;;4947871;29;20265;-70
2021/01/29 11:53:51;;;;;;;4.55;1.80;;;12.40;99.90;;;;;;4927207;29;20232;-71
2021/01/29 11:56:23;;;;;;;3.03;1.25;;;11.90;99.90;;;;;;4929168;28;20275;-71
2021/01/29 11:58:59;;;;;;;4.93;1.77;;;11.60;99.90;;;;;;4930721;28;20205;-70
2021/01/29 12:01:31;;;;;;;3.55;1.60;;;11.40;99.90;;;;;;4947878;28;20216;-70
2021/01/29 12:04:07;;;;;;;1.80;1.42;;;11.50;99.90;;;;;;4947253;28;20228;-70
2021/01/29 12:06:38;;;;;;;2.10;1.58;;;11.60;99.90;;;;;;4948322;28;20258;-71
2021/01/29 12:09:08;;;;;;;3.35;1.42;;;11.50;99.90;;;;;;4947419;29;20227;-71
2021/01/29 12:11:41;;;;;;;1.92;1.25;;;11.30;99.90;;;;;;4947617;29;20215;-71
2021/01/29 12:14:16;;;;;;;4.30;1.40;;;11.30;99.90;;;;;;4947302;28;20621;-70
2021/01/29 12:16:45;;;;;;;2.22;1.30;;;11.40;99.90;;;;;;4947341;29;20224;-70
2021/01/29 12:19:24;;;;;;;2.78;1.52;;;11.20;99.90;;;;;;4947765;29;20269;-70
2021/01/29 12:22:03;;;;;;;3.35;1.60;;;11.30;99.90;;;;;;4947142;29;20204;-70
2021/01/29 12:24:39;;;;;;;2.92;1.05;;;11.30;99.90;;;;;;4947218;29;20270;-70
2021/01/29 12:27:10;;;;;;;3.13;1.80;;;11.40;99.90;;;;;;4947174;29;20208;-70
2021/01/29 12:29:46;;;;;;;2.63;1.70;;;11.30;99.90;;;;;;4947386;29;20207;-70
2021/01/29 12:32:35;;;;;;;3.20;1.80;;;11.20;99.90;;;;;;4947230;28;20550;-70
2021/01/29 12:35:08;;;;;;;4.80;1.40;;;11.00;99.90;;;;;;4946993;29;20204;-70
2021/01/29 12:37:36;;;;;;;2.78;1.38;;;10.80;99.90;;;;;;4947593;28;20232;-70
2021/01/29 12:40:07;;;;;;;10.43;2.40;;;10.70;99.90;;;;;;4946724;29;20220;-69
2021/01/29 12:42:47;;;;;;;4.25;2.40;;;10.50;99.90;;;;;;4948955;28;20196;-71
2021/01/29 12:45:21;;;;;;;3.88;1.35;;;10.30;99.90;;;;;;4947095;29;20196;-70
2021/01/29 12:47:55;;;;;;;5.85;1.90;;;10.20;99.90;;;;;;4937178;28;20201;-70
2021/01/29 12:50:46;;;;;;;3.85;1.50;;;10.30;99.90;;;;;;4928220;29;20212;-69
2021/01/29 12:53:16;;;;;;;1.52;1.27;;;10.50;99.90;;;;;;4927188;28;20253;-70
2021/01/29 12:55:50;;;;;;;3.38;1.80;;;10.50;99.90;;;;;;4928119;29;20668;-69
2021/01/29 12:58:17;;;;;;;2.95;1.30;;;10.70;99.90;;;;;;4931325;28;20229;-69
2021/01/29 13:00:44;;;;;;;2.15;1.35;;;11.00;99.90;;;;;;4946520;29;20254;-69
2021/01/29 13:03:30;;;;;;;2.65;1.15;;;11.10;99.90;;;;;;4945960;29;20662;-68
2021/01/29 13:06:09;;;;;;;2.35;1.15;;;10.90;99.90;;;;;;4946689;29;20205;-69
2021/01/29 13:09:09;;;;;;;1.92;1.25;;;10.60;99.90;;;;;;4947167;29;20204;-69
2021/01/29 13:11:49;;;;;;;1.98;1.23;;;10.50;99.90;;;;;;4946300;29;20212;-70
2021/01/29 13:14:24;;;;;;;1.60;1.20;;;10.30;99.90;;;;;;4945533;28;20224;-70
2021/01/29 13:17:13;;;;;;;3.70;2.00;;;10.00;99.90;;;;;;4946660;28;20223;-69
2021/01/29 13:19:40;;;;;;;1.88;1.27;;;9.80;99.90;;;;;;4947720;29;20205;-70
2021/01/29 13:22:34;;;;;;;1.90;1.05;;;9.90;99.90;;;;;;4949241;28;20209;-69
2021/01/29 13:25:05;;;;;;;1.25;0.85;;;9.80;99.90;;;;;;4950229;29;20204;-69
2021/01/29 13:27:36;;;;;;;1.67;1.30;;;9.80;99.90;;;;;;4950051;28;20209;-69
2021/01/29 13:30:21;;;;;;;1.90;1.30;;;9.80;99.90;;;;;;4949831;28;20216;-69
2021/01/29 13:32:48;;;;;;;3.47;1.42;;;9.80;99.90;;;;;;4949343;28;20224;-70
2021/01/29 13:35:23;;;;;;;4.75;2.63;;;10.00;99.90;;;;;;4950056;28;20655;-71
2021/01/29 13:37:51;;;;;;;3.63;1.40;;;10.30;99.90;;;;;;4950333;28;20271;-72
2021/01/29 13:40:25;;;;;;;1.27;0.90;;;10.40;99.90;;;;;;4948976;29;20212;-70
2021/01/29 13:42:52;;;;;;;1.70;0.90;;;10.50;99.90;;;;;;4948573;28;20256;-70
2021/01/29 13:45:27;;;;;;;1.60;1.30;;;10.70;99.90;;;;;;4950156;29;20675;-71
2021/01/29 13:48:02;;;;;;;4.30;1.08;;;10.90;99.90;;;;;;4948982;28;20200;-71
2021/01/29 13:50:33;;;;;;;1.75;1.15;;;11.00;99.90;;;;;;4949542;29;20212;-70